SWR730M LSZH-EDXW
Flight info
| Callsign | SWR730M |
|---|---|
| Flight time | 1h 18m |
| Altitude | 38000 |
| Route | DEGES Z1 ETAGO DCT HAREM/N0444F370 DCT LOHRE DCT ELNAT/N0447F380 DCT ELSOB Y348 OMWEG DCT BADOS DCT OLDIP |
| Aircraft | A320/M-SDE2E3FGIRWXY/L |
Departure
| Time | 2026-05-07 14:48 |
|---|---|
| Airport | Zürich Airport (LSZH) |
Arrival
| Time | 2026-05-07 16:07 |
|---|---|
| Airport | Westerland Sylt Airport (EDXW) |
| Time | Latitude | Longitude | Altitude | Speed | Heading |
|---|---|---|---|---|---|
| 2026-05-07 14:33 | 47.45434 | 8.55691 | 1407 ft | 0 kts | 186° |
| 2026-05-07 14:40 | 47.45441 | 8.55693 | 1407 ft | 4 kts | 184° |
| 2026-05-07 14:41 | 47.45468 | 8.55693 | 1407 ft | 4 kts | 172° |
| 2026-05-07 14:41 | 47.45494 | 8.55684 | 1410 ft | 4 kts | 153° |
| 2026-05-07 14:41 | 47.45513 | 8.55661 | 1411 ft | 4 kts | 108° |
| 2026-05-07 14:41 | 47.45515 | 8.55651 | 1409 ft | 0 kts | 96° |
| 2026-05-07 14:43 | 47.45515 | 8.55656 | 1412 ft | 2 kts | 96° |
| 2026-05-07 14:43 | 47.45513 | 8.55690 | 1407 ft | 4 kts | 96° |
| 2026-05-07 14:44 | 47.45508 | 8.55748 | 1410 ft | 8 kts | 96° |
| 2026-05-07 14:44 | 47.45500 | 8.55865 | 1407 ft | 15 kts | 96° |
| 2026-05-07 14:44 | 47.45488 | 8.56034 | 1412 ft | 18 kts | 96° |
| 2026-05-07 14:44 | 47.45486 | 8.56223 | 1408 ft | 16 kts | 56° |
| 2026-05-07 14:45 | 47.45556 | 8.56357 | 1413 ft | 17 kts | 50° |
| 2026-05-07 14:45 | 47.45594 | 8.56494 | 1415 ft | 14 kts | 96° |
| 2026-05-07 14:45 | 47.45582 | 8.56655 | 1418 ft | 18 kts | 97° |
| 2026-05-07 14:45 | 47.45567 | 8.56847 | 1420 ft | 18 kts | 95° |
| 2026-05-07 14:46 | 47.45570 | 8.56986 | 1421 ft | 7 kts | 63° |
| 2026-05-07 14:46 | 47.45575 | 8.56995 | 1422 ft | 0 kts | 49° |
| 2026-05-07 14:47 | 47.45602 | 8.57020 | 1424 ft | 6 kts | 15° |
| 2026-05-07 14:47 | 47.45635 | 8.57025 | 1425 ft | 5 kts | 6° |
| 2026-05-07 14:47 | 47.45666 | 8.56987 | 1424 ft | 8 kts | 277° |
| 2026-05-07 14:48 | 47.45675 | 8.56848 | 1422 ft | 32 kts | 276° |
| 2026-05-07 14:48 | 47.45728 | 8.56086 | 1412 ft | 112 kts | 276° |
| 2026-05-07 14:48 | 47.45829 | 8.54646 | 1602 ft | 154 kts | 277° |
| 2026-05-07 14:48 | 47.45941 | 8.53043 | 2401 ft | 160 kts | 276° |
| 2026-05-07 14:49 | 47.46055 | 8.51386 | 3246 ft | 163 kts | 276° |
| 2026-05-07 14:49 | 47.46172 | 8.49716 | 4022 ft | 164 kts | 276° |
| 2026-05-07 14:49 | 47.46207 | 8.48028 | 4704 ft | 171 kts | 259° |
| 2026-05-07 14:49 | 47.45553 | 8.46452 | 5105 ft | 195 kts | 224° |
| 2026-05-07 14:50 | 47.44472 | 8.45061 | 5568 ft | 216 kts | 227° |
| 2026-05-07 14:50 | 47.43655 | 8.43177 | 6368 ft | 223 kts | 251° |
| 2026-05-07 14:50 | 47.43285 | 8.40951 | 7287 ft | 225 kts | 256° |
| 2026-05-07 14:50 | 47.42883 | 8.38721 | 8302 ft | 226 kts | 250° |
| 2026-05-07 14:51 | 47.42002 | 8.36796 | 9224 ft | 232 kts | 221° |
| 2026-05-07 14:51 | 47.40553 | 8.35761 | 10269 ft | 234 kts | 193° |
| 2026-05-07 14:51 | 47.38906 | 8.35832 | 11183 ft | 244 kts | 167° |
| 2026-05-07 14:51 | 47.37421 | 8.37089 | 12093 ft | 255 kts | 136° |
| 2026-05-07 14:52 | 47.36586 | 8.39410 | 12978 ft | 264 kts | 102° |
| 2026-05-07 14:52 | 47.36727 | 8.42112 | 13836 ft | 271 kts | 68° |
| 2026-05-07 14:52 | 47.37855 | 8.44316 | 14584 ft | 273 kts | 33° |
| 2026-05-07 14:52 | 47.39602 | 8.45355 | 15339 ft | 273 kts | 9° |
| 2026-05-07 14:53 | 47.41422 | 8.46166 | 16162 ft | 279 kts | 28° |
| 2026-05-07 14:53 | 47.42974 | 8.48065 | 16529 ft | 304 kts | 47° |
| 2026-05-07 14:53 | 47.44329 | 8.50619 | 16811 ft | 328 kts | 54° |
| 2026-05-07 14:53 | 47.45396 | 8.53714 | 17024 ft | 352 kts | 73° |
| 2026-05-07 14:54 | 47.45814 | 8.57379 | 17395 ft | 370 kts | 88° |
| 2026-05-07 14:54 | 47.45845 | 8.61278 | 18120 ft | 378 kts | 89° |
| 2026-05-07 14:54 | 47.45950 | 8.65122 | 18812 ft | 382 kts | 87° |
| 2026-05-07 14:54 | 47.46118 | 8.69064 | 19486 ft | 386 kts | 86° |
| 2026-05-07 14:55 | 47.46314 | 8.73081 | 20167 ft | 390 kts | 86° |
| 2026-05-07 14:55 | 47.46507 | 8.77101 | 20848 ft | 394 kts | 86° |
| 2026-05-07 14:55 | 47.46625 | 8.81151 | 21503 ft | 398 kts | 92° |
| 2026-05-07 14:55 | 47.46313 | 8.85226 | 22157 ft | 401 kts | 102° |
| 2026-05-07 14:56 | 47.45714 | 8.89280 | 22819 ft | 405 kts | 103° |
| 2026-05-07 14:56 | 47.45110 | 8.93372 | 23465 ft | 410 kts | 103° |
| 2026-05-07 14:56 | 47.44510 | 8.97507 | 24023 ft | 414 kts | 102° |
| 2026-05-07 14:56 | 47.43955 | 9.01390 | 24520 ft | 417 kts | 102° |
| 2026-05-07 14:57 | 47.43359 | 9.05597 | 25043 ft | 420 kts | 101° |
| 2026-05-07 14:57 | 47.43156 | 9.09902 | 25551 ft | 423 kts | 85° |
| 2026-05-07 14:57 | 47.43474 | 9.12741 | 25886 ft | 425 kts | 74° |
| 2026-05-07 14:57 | 47.44307 | 9.15862 | 26259 ft | 426 kts | 60° |
| 2026-05-07 14:58 | 47.46070 | 9.19354 | 26740 ft | 426 kts | 42° |
| 2026-05-07 14:58 | 47.48448 | 9.21936 | 27223 ft | 425 kts | 26° |
| 2026-05-07 14:58 | 47.51077 | 9.23962 | 27691 ft | 427 kts | 25° |
| 2026-05-07 14:58 | 47.53727 | 9.25984 | 28176 ft | 430 kts | 25° |
| 2026-05-07 14:59 | 47.56431 | 9.28048 | 28648 ft | 432 kts | 25° |
| 2026-05-07 14:59 | 47.59103 | 9.30097 | 29103 ft | 435 kts | 25° |
| 2026-05-07 14:59 | 47.61795 | 9.32171 | 29552 ft | 437 kts | 26° |
| 2026-05-07 14:59 | 47.64504 | 9.34265 | 29988 ft | 440 kts | 26° |
| 2026-05-07 15:00 | 47.67228 | 9.36368 | 30354 ft | 442 kts | 26° |
| 2026-05-07 15:00 | 47.69958 | 9.38481 | 30670 ft | 445 kts | 26° |
| 2026-05-07 15:00 | 47.72713 | 9.40620 | 30975 ft | 448 kts | 26° |
| 2026-05-07 15:00 | 47.75485 | 9.42775 | 31289 ft | 451 kts | 25° |
| 2026-05-07 15:01 | 47.78369 | 9.44597 | 31574 ft | 451 kts | 16° |
| 2026-05-07 15:01 | 47.81407 | 9.45765 | 31863 ft | 451 kts | 7° |
| 2026-05-07 15:01 | 47.84523 | 9.46248 | 32188 ft | 449 kts | 359° |
| 2026-05-07 15:01 | 47.87646 | 9.46248 | 32604 ft | 448 kts | 357° |
| 2026-05-07 15:02 | 47.90764 | 9.46237 | 33009 ft | 448 kts | 357° |
| 2026-05-07 15:02 | 47.93877 | 9.46233 | 33412 ft | 448 kts | 357° |
| 2026-05-07 15:02 | 47.96993 | 9.46230 | 33816 ft | 448 kts | 357° |
| 2026-05-07 15:02 | 48.00109 | 9.46228 | 34192 ft | 448 kts | 357° |
| 2026-05-07 15:03 | 48.03230 | 9.46226 | 34529 ft | 448 kts | 357° |
| 2026-05-07 15:03 | 48.06345 | 9.46219 | 34838 ft | 449 kts | 356° |
| 2026-05-07 15:03 | 48.09467 | 9.46209 | 35136 ft | 449 kts | 357° |
| 2026-05-07 15:03 | 48.12600 | 9.46198 | 35436 ft | 450 kts | 357° |
| 2026-05-07 15:04 | 48.15732 | 9.46191 | 35723 ft | 451 kts | 357° |
| 2026-05-07 15:04 | 48.18867 | 9.46188 | 36010 ft | 451 kts | 357° |
| 2026-05-07 15:04 | 48.22008 | 9.46185 | 36292 ft | 452 kts | 357° |
| 2026-05-07 15:04 | 48.25156 | 9.46187 | 36568 ft | 452 kts | 357° |
| 2026-05-07 15:05 | 48.28302 | 9.46194 | 36848 ft | 453 kts | 357° |
| 2026-05-07 15:05 | 48.31454 | 9.46203 | 37127 ft | 453 kts | 357° |
| 2026-05-07 15:05 | 48.34610 | 9.46209 | 37393 ft | 454 kts | 357° |
| 2026-05-07 15:05 | 48.37812 | 9.46212 | 37648 ft | 454 kts | 357° |
| 2026-05-07 15:06 | 48.40977 | 9.46212 | 37914 ft | 455 kts | 357° |
| 2026-05-07 15:06 | 48.44149 | 9.46215 | 38017 ft | 456 kts | 357° |
| 2026-05-07 15:06 | 48.50488 | 9.46225 | 38028 ft | 455 kts | 357° |
| 2026-05-07 15:07 | 48.56824 | 9.46213 | 38028 ft | 455 kts | 357° |
| 2026-05-07 15:07 | 48.63148 | 9.46136 | 38031 ft | 455 kts | 356° |
| 2026-05-07 15:08 | 48.69480 | 9.46034 | 38030 ft | 455 kts | 356° |
| 2026-05-07 15:08 | 48.75800 | 9.45918 | 38037 ft | 454 kts | 356° |
| 2026-05-07 15:09 | 48.82122 | 9.45612 | 38044 ft | 454 kts | 355° |
| 2026-05-07 15:09 | 48.88439 | 9.45226 | 38050 ft | 454 kts | 355° |
| 2026-05-07 15:10 | 48.94711 | 9.44882 | 38064 ft | 454 kts | 355° |
| 2026-05-07 15:10 | 49.01030 | 9.44568 | 38068 ft | 454 kts | 355° |
| 2026-05-07 15:11 | 49.07353 | 9.44252 | 38072 ft | 454 kts | 355° |
| 2026-05-07 15:11 | 49.13674 | 9.43934 | 38075 ft | 454 kts | 355° |
| 2026-05-07 15:12 | 49.19994 | 9.43612 | 38072 ft | 454 kts | 355° |
| 2026-05-07 15:12 | 49.26308 | 9.43285 | 38072 ft | 454 kts | 355° |
| 2026-05-07 15:13 | 49.32621 | 9.42959 | 38072 ft | 454 kts | 355° |
| 2026-05-07 15:13 | 49.38977 | 9.42632 | 38072 ft | 454 kts | 356° |
| 2026-05-07 15:14 | 49.45297 | 9.42306 | 38071 ft | 454 kts | 356° |
| 2026-05-07 15:14 | 49.51609 | 9.41981 | 38079 ft | 454 kts | 356° |
| 2026-05-07 15:15 | 49.57921 | 9.41656 | 38078 ft | 454 kts | 356° |
| 2026-05-07 15:15 | 49.64232 | 9.41813 | 38079 ft | 456 kts | 4° |
| 2026-05-07 15:16 | 49.70026 | 9.42735 | 38079 ft | 455 kts | 4° |
| 2026-05-07 15:16 | 49.76325 | 9.43747 | 38082 ft | 455 kts | 4° |
| 2026-05-07 15:17 | 49.82637 | 9.44760 | 38072 ft | 455 kts | 4° |
| 2026-05-07 15:17 | 49.88938 | 9.45768 | 38080 ft | 455 kts | 4° |
| 2026-05-07 15:18 | 49.95235 | 9.46781 | 38078 ft | 455 kts | 4° |
| 2026-05-07 15:18 | 50.01531 | 9.47800 | 38074 ft | 455 kts | 4° |
| 2026-05-07 15:19 | 50.07832 | 9.48817 | 38076 ft | 455 kts | 4° |
| 2026-05-07 15:19 | 50.14126 | 9.49902 | 38071 ft | 455 kts | 5° |
| 2026-05-07 15:20 | 50.20422 | 9.51039 | 38070 ft | 455 kts | 5° |
| 2026-05-07 15:20 | 50.26712 | 9.52174 | 38068 ft | 455 kts | 5° |
| 2026-05-07 15:21 | 50.32926 | 9.53276 | 38077 ft | 455 kts | 5° |
| 2026-05-07 15:21 | 50.39218 | 9.54384 | 38067 ft | 455 kts | 5° |
| 2026-05-07 15:22 | 50.45553 | 9.55501 | 38071 ft | 455 kts | 5° |
| 2026-05-07 15:22 | 50.51846 | 9.56620 | 38072 ft | 455 kts | 5° |
| 2026-05-07 15:23 | 50.58146 | 9.57757 | 38071 ft | 456 kts | 5° |
| 2026-05-07 15:23 | 50.64447 | 9.58896 | 38077 ft | 456 kts | 5° |
| 2026-05-07 15:24 | 50.70746 | 9.60037 | 38077 ft | 456 kts | 5° |
| 2026-05-07 15:24 | 50.77047 | 9.61176 | 38077 ft | 456 kts | 5° |
| 2026-05-07 15:25 | 50.83355 | 9.62308 | 38079 ft | 456 kts | 5° |
| 2026-05-07 15:25 | 50.89656 | 9.63464 | 38076 ft | 456 kts | 5° |
| 2026-05-07 15:26 | 50.95951 | 9.64612 | 38080 ft | 456 kts | 5° |
| 2026-05-07 15:26 | 51.02254 | 9.65753 | 38078 ft | 456 kts | 5° |
| 2026-05-07 15:27 | 51.08553 | 9.66902 | 38077 ft | 455 kts | 5° |
| 2026-05-07 15:27 | 51.14845 | 9.68060 | 38075 ft | 455 kts | 5° |
| 2026-05-07 15:28 | 51.21142 | 9.69046 | 38077 ft | 454 kts | 359° |
| 2026-05-07 15:28 | 51.27459 | 9.68780 | 38076 ft | 454 kts | 357° |
| 2026-05-07 15:29 | 51.33817 | 9.68506 | 38089 ft | 454 kts | 357° |
| 2026-05-07 15:29 | 51.40134 | 9.68246 | 38091 ft | 454 kts | 357° |
| 2026-05-07 15:30 | 51.45384 | 9.68026 | 38093 ft | 454 kts | 357° |
| 2026-05-07 15:30 | 51.51707 | 9.67744 | 38096 ft | 455 kts | 357° |
| 2026-05-07 15:31 | 51.58037 | 9.67461 | 38094 ft | 455 kts | 357° |
| 2026-05-07 15:31 | 51.64365 | 9.67193 | 38100 ft | 455 kts | 357° |
| 2026-05-07 15:32 | 51.70689 | 9.66910 | 38095 ft | 455 kts | 357° |
| 2026-05-07 15:32 | 51.77016 | 9.66624 | 38100 ft | 455 kts | 357° |
| 2026-05-07 15:33 | 51.83347 | 9.66341 | 38104 ft | 455 kts | 357° |
| 2026-05-07 15:33 | 51.89722 | 9.66063 | 38106 ft | 455 kts | 357° |
| 2026-05-07 15:34 | 51.96051 | 9.65783 | 38108 ft | 455 kts | 357° |
| 2026-05-07 15:34 | 52.02374 | 9.65507 | 38107 ft | 455 kts | 357° |
| 2026-05-07 15:35 | 52.08702 | 9.65225 | 38110 ft | 455 kts | 357° |
| 2026-05-07 15:35 | 52.15034 | 9.64933 | 38109 ft | 455 kts | 357° |
| 2026-05-07 15:36 | 52.21362 | 9.64641 | 38123 ft | 455 kts | 357° |
| 2026-05-07 15:36 | 52.27695 | 9.64350 | 38124 ft | 455 kts | 357° |
| 2026-05-07 15:37 | 52.34023 | 9.64074 | 38129 ft | 455 kts | 357° |
| 2026-05-07 15:37 | 52.40346 | 9.63797 | 38131 ft | 455 kts | 357° |
| 2026-05-07 15:38 | 52.46673 | 9.63500 | 38130 ft | 455 kts | 357° |
| 2026-05-07 15:38 | 52.52999 | 9.63211 | 38133 ft | 455 kts | 357° |
| 2026-05-07 15:39 | 52.59314 | 9.62928 | 38128 ft | 454 kts | 357° |
| 2026-05-07 15:39 | 52.65633 | 9.62635 | 38117 ft | 454 kts | 357° |
| 2026-05-07 15:40 | 52.71941 | 9.62337 | 38108 ft | 454 kts | 357° |
| 2026-05-07 15:40 | 52.78294 | 9.62044 | 38096 ft | 453 kts | 357° |
| 2026-05-07 15:41 | 52.84603 | 9.61755 | 38100 ft | 453 kts | 357° |
| 2026-05-07 15:41 | 52.90906 | 9.61465 | 38093 ft | 453 kts | 357° |
| 2026-05-07 15:42 | 52.97204 | 9.61166 | 38090 ft | 453 kts | 357° |
| 2026-05-07 15:42 | 53.03455 | 9.60874 | 38069 ft | 448 kts | 357° |
| 2026-05-07 15:43 | 53.09715 | 9.60591 | 38075 ft | 452 kts | 357° |
| 2026-05-07 15:43 | 53.16001 | 9.60303 | 38077 ft | 452 kts | 357° |
| 2026-05-07 15:44 | 53.22291 | 9.60007 | 38077 ft | 452 kts | 357° |
| 2026-05-07 15:44 | 53.25444 | 9.59855 | 37866 ft | 453 kts | 357° |
| 2026-05-07 15:44 | 53.28584 | 9.59701 | 37446 ft | 452 kts | 357° |
| 2026-05-07 15:45 | 53.31738 | 9.59547 | 36576 ft | 454 kts | 357° |
| 2026-05-07 15:45 | 53.34901 | 9.59392 | 35720 ft | 455 kts | 358° |
| 2026-05-07 15:45 | 53.38069 | 9.59237 | 34808 ft | 456 kts | 358° |
| 2026-05-07 15:45 | 53.40540 | 9.59118 | 34066 ft | 458 kts | 358° |
| 2026-05-07 15:46 | 53.46803 | 9.58824 | 32837 ft | 442 kts | 358° |
| 2026-05-07 15:46 | 53.49855 | 9.58681 | 32217 ft | 436 kts | 358° |
| 2026-05-07 15:46 | 53.52871 | 9.58538 | 31618 ft | 431 kts | 358° |
| 2026-05-07 15:47 | 53.55853 | 9.58399 | 31028 ft | 426 kts | 358° |
| 2026-05-07 15:47 | 53.58801 | 9.58262 | 30441 ft | 422 kts | 358° |
| 2026-05-07 15:47 | 53.61757 | 9.58121 | 29812 ft | 418 kts | 357° |
| 2026-05-07 15:47 | 53.64641 | 9.57973 | 29244 ft | 412 kts | 356° |
| 2026-05-07 15:48 | 53.67466 | 9.57439 | 28673 ft | 406 kts | 351° |
| 2026-05-07 15:48 | 53.70251 | 9.56784 | 28118 ft | 401 kts | 351° |
| 2026-05-07 15:48 | 53.73002 | 9.56140 | 27578 ft | 397 kts | 351° |
| 2026-05-07 15:48 | 53.75724 | 9.55506 | 27052 ft | 393 kts | 351° |
| 2026-05-07 15:49 | 53.78416 | 9.54885 | 26545 ft | 389 kts | 351° |
| 2026-05-07 15:49 | 53.81081 | 9.54268 | 26040 ft | 385 kts | 351° |
| 2026-05-07 15:49 | 53.83728 | 9.53653 | 25547 ft | 382 kts | 351° |
| 2026-05-07 15:49 | 53.86353 | 9.53040 | 25051 ft | 379 kts | 351° |
| 2026-05-07 15:50 | 53.88956 | 9.52434 | 24549 ft | 377 kts | 351° |
| 2026-05-07 15:50 | 53.91543 | 9.51829 | 24047 ft | 374 kts | 351° |
| 2026-05-07 15:50 | 53.94118 | 9.51224 | 23512 ft | 372 kts | 351° |
| 2026-05-07 15:50 | 53.96675 | 9.50619 | 22905 ft | 370 kts | 351° |
| 2026-05-07 15:51 | 53.99248 | 9.49906 | 21829 ft | 380 kts | 345° |
| 2026-05-07 15:51 | 54.01765 | 9.48376 | 20953 ft | 386 kts | 332° |
| 2026-05-07 15:51 | 54.04073 | 9.46146 | 20518 ft | 378 kts | 329° |
| 2026-05-07 15:51 | 54.06339 | 9.43914 | 20008 ft | 375 kts | 329° |
| 2026-05-07 15:52 | 54.08598 | 9.41704 | 19211 ft | 378 kts | 329° |
| 2026-05-07 15:52 | 54.10903 | 9.39448 | 18228 ft | 387 kts | 329° |
| 2026-05-07 15:52 | 54.13260 | 9.37137 | 17116 ft | 395 kts | 329° |
| 2026-05-07 15:52 | 54.15656 | 9.34781 | 16037 ft | 401 kts | 329° |
| 2026-05-07 15:53 | 54.18091 | 9.32377 | 15006 ft | 406 kts | 329° |
| 2026-05-07 15:53 | 54.20538 | 9.29952 | 14577 ft | 395 kts | 329° |
| 2026-05-07 15:53 | 54.22866 | 9.27640 | 14336 ft | 379 kts | 329° |
| 2026-05-07 15:53 | 54.25105 | 9.25414 | 14095 ft | 365 kts | 329° |
| 2026-05-07 15:54 | 54.27262 | 9.23268 | 13847 ft | 352 kts | 329° |
| 2026-05-07 15:54 | 54.29343 | 9.21194 | 13575 ft | 341 kts | 329° |
| 2026-05-07 15:54 | 54.31365 | 9.19172 | 13305 ft | 331 kts | 329° |
| 2026-05-07 15:54 | 54.33318 | 9.17216 | 13037 ft | 321 kts | 329° |
| 2026-05-07 15:55 | 54.35227 | 9.15305 | 12777 ft | 313 kts | 329° |
| 2026-05-07 15:55 | 54.37028 | 9.13308 | 12518 ft | 305 kts | 321° |
| 2026-05-07 15:55 | 54.38561 | 9.10855 | 12259 ft | 299 kts | 314° |
| 2026-05-07 15:55 | 54.40014 | 9.08332 | 11998 ft | 296 kts | 314° |
| 2026-05-07 15:56 | 54.41457 | 9.05823 | 11740 ft | 295 kts | 314° |
| 2026-05-07 15:56 | 54.42896 | 9.03322 | 11447 ft | 294 kts | 314° |
| 2026-05-07 15:56 | 54.44331 | 9.00833 | 11068 ft | 292 kts | 314° |
| 2026-05-07 15:56 | 54.45758 | 8.98357 | 10693 ft | 290 kts | 314° |
| 2026-05-07 15:57 | 54.47174 | 8.95896 | 10332 ft | 288 kts | 314° |
| 2026-05-07 15:57 | 54.48575 | 8.93455 | 9951 ft | 286 kts | 314° |
| 2026-05-07 15:57 | 54.49967 | 8.91026 | 9555 ft | 284 kts | 314° |
| 2026-05-07 15:57 | 54.51347 | 8.88612 | 9152 ft | 282 kts | 314° |
| 2026-05-07 15:58 | 54.52716 | 8.86220 | 8748 ft | 279 kts | 315° |
| 2026-05-07 15:58 | 54.54073 | 8.83850 | 8351 ft | 277 kts | 315° |
| 2026-05-07 15:58 | 54.55416 | 8.81502 | 7967 ft | 274 kts | 315° |
| 2026-05-07 15:58 | 54.56744 | 8.79169 | 7580 ft | 271 kts | 315° |
| 2026-05-07 15:59 | 54.58075 | 8.76827 | 7150 ft | 269 kts | 315° |
| 2026-05-07 15:59 | 54.59404 | 8.74494 | 6465 ft | 274 kts | 315° |
| 2026-05-07 15:59 | 54.60679 | 8.72111 | 5835 ft | 267 kts | 313° |
| 2026-05-07 15:59 | 54.62029 | 8.69991 | 5286 ft | 258 kts | 324° |
| 2026-05-07 16:00 | 54.63438 | 8.68268 | 5147 ft | 242 kts | 326° |
| 2026-05-07 16:00 | 54.64826 | 8.66607 | 5033 ft | 242 kts | 329° |
| 2026-05-07 16:00 | 54.66194 | 8.64946 | 5010 ft | 241 kts | 326° |
| 2026-05-07 16:00 | 54.67565 | 8.63272 | 5014 ft | 242 kts | 326° |
| 2026-05-07 16:01 | 54.68938 | 8.61595 | 5014 ft | 242 kts | 326° |
| 2026-05-07 16:01 | 54.70312 | 8.59915 | 4893 ft | 242 kts | 325° |
| 2026-05-07 16:01 | 54.71679 | 8.58242 | 4607 ft | 239 kts | 325° |
| 2026-05-07 16:01 | 54.73037 | 8.56580 | 4284 ft | 239 kts | 325° |
| 2026-05-07 16:02 | 54.73935 | 8.55479 | 4065 ft | 239 kts | 325° |
| 2026-05-07 16:02 | 54.75736 | 8.53270 | 3640 ft | 236 kts | 325° |
| 2026-05-07 16:02 | 54.76617 | 8.52188 | 3420 ft | 233 kts | 326° |
| 2026-05-07 16:02 | 54.77907 | 8.50603 | 3113 ft | 222 kts | 326° |
| 2026-05-07 16:03 | 54.79139 | 8.49089 | 2814 ft | 212 kts | 325° |
| 2026-05-07 16:03 | 54.80325 | 8.47629 | 2554 ft | 200 kts | 325° |
| 2026-05-07 16:03 | 54.81437 | 8.46260 | 2262 ft | 193 kts | 325° |
| 2026-05-07 16:03 | 54.82516 | 8.44931 | 2000 ft | 187 kts | 325° |
| 2026-05-07 16:04 | 54.83560 | 8.43645 | 1746 ft | 179 kts | 325° |
| 2026-05-07 16:04 | 54.84535 | 8.42441 | 1506 ft | 166 kts | 326° |
| 2026-05-07 16:04 | 54.85445 | 8.41317 | 1284 ft | 156 kts | 326° |
| 2026-05-07 16:04 | 54.86300 | 8.40261 | 1048 ft | 145 kts | 326° |
| 2026-05-07 16:05 | 54.87072 | 8.39311 | 861 ft | 129 kts | 325° |
| 2026-05-07 16:05 | 54.87778 | 8.38437 | 701 ft | 121 kts | 324° |
| 2026-05-07 16:05 | 54.88461 | 8.37592 | 541 ft | 119 kts | 324° |
| 2026-05-07 16:05 | 54.89133 | 8.36758 | 397 ft | 118 kts | 323° |
| 2026-05-07 16:06 | 54.89800 | 8.35930 | 226 ft | 118 kts | 323° |
| 2026-05-07 16:06 | 54.90465 | 8.35111 | 67 ft | 117 kts | 323° |
| 2026-05-07 16:06 | 54.91051 | 8.34384 | 43 ft | 76 kts | 324° |
| 2026-05-07 16:06 | 54.91397 | 8.33956 | 41 ft | 52 kts | 324° |
| 2026-05-07 16:07 | 54.91611 | 8.33691 | 43 ft | 18 kts | 325° |
| 2026-05-07 16:07 | 54.91682 | 8.33563 | 43 ft | 13 kts | 284° |
| 2026-05-07 16:07 | 54.91720 | 8.33395 | 42 ft | 17 kts | 294° |
| 2026-05-07 16:07 | 54.91764 | 8.33217 | 41 ft | 12 kts | 292° |
| 2026-05-07 16:08 | 54.91735 | 8.33173 | 41 ft | 6 kts | 178° |
| 2026-05-07 16:08 | 54.91679 | 8.33176 | 41 ft | 12 kts | 179° |
| 2026-05-07 16:08 | 54.91594 | 8.33176 | 41 ft | 12 kts | 180° |
| 2026-05-07 16:08 | 54.91512 | 8.33177 | 41 ft | 12 kts | 180° |
| 2026-05-07 16:09 | 54.91437 | 8.33221 | 41 ft | 11 kts | 150° |
| 2026-05-07 16:09 | 54.91387 | 8.33194 | 40 ft | 6 kts | 258° |
| 2026-05-07 16:09 | 54.91387 | 8.33135 | 40 ft | 4 kts | 269° |
| 2026-05-07 16:09 | 54.91387 | 8.33117 | 40 ft | 0 kts | 269° |